sensor_id;sensor_type;location;lat;lon;timestamp;P1;durP1;ratioP1;P2;durP2;ratioP2
70071;SDS011;57434;42.794;23.302;2023-06-14T00:00:32;16.55;;;5.53;;
70071;SDS011;57434;42.794;23.302;2023-06-14T00:01:34;12.90;;;6.35;;
70071;SDS011;57434;42.794;23.302;2023-06-14T00:02:35;12.57;;;5.13;;
70071;SDS011;57434;42.794;23.302;2023-06-14T00:03:37;13.32;;;5.70;;
70071;SDS011;57434;42.794;23.302;2023-06-14T00:04:39;11.38;;;5.47;;
70071;SDS011;57434;42.794;23.302;2023-06-14T00:05:41;14.73;;;5.20;;
70071;SDS011;57434;42.794;23.302;2023-06-14T00:06:44;13.75;;;4.93;;
70071;SDS011;57434;42.794;23.302;2023-06-14T00:07:46;9.80;;;4.45;;
70071;SDS011;57434;42.794;23.302;2023-06-14T00:08:48;9.68;;;4.60;;
70071;SDS011;57434;42.794;23.302;2023-06-14T00:09:49;12.10;;;4.67;;
70071;SDS011;57434;42.794;23.302;2023-06-14T00:10:51;10.07;;;4.88;;
70071;SDS011;57434;42.794;23.302;2023-06-14T00:11:53;10.43;;;5.05;;
70071;SDS011;57434;42.794;23.302;2023-06-14T00:12:55;9.55;;;4.78;;
70071;SDS011;57434;42.794;23.302;2023-06-14T00:13:57;8.57;;;4.75;;
70071;SDS011;57434;42.794;23.302;2023-06-14T00:14:59;7.95;;;4.40;;
70071;SDS011;57434;42.794;23.302;2023-06-14T00:16:01;11.98;;;4.63;;
70071;SDS011;57434;42.794;23.302;2023-06-14T00:17:03;11.73;;;5.20;;
70071;SDS011;57434;42.794;23.302;2023-06-14T00:18:05;11.10;;;5.10;;
70071;SDS011;57434;42.794;23.302;2023-06-14T00:19:07;10.60;;;4.93;;
70071;SDS011;57434;42.794;23.302;2023-06-14T00:20:09;9.07;;;4.13;;
70071;SDS011;57434;42.794;23.302;2023-06-14T00:21:11;10.63;;;5.60;;
70071;SDS011;57434;42.794;23.302;2023-06-14T00:22:13;13.82;;;4.45;;
70071;SDS011;57434;42.794;23.302;2023-06-14T00:23:15;14.85;;;5.03;;
70071;SDS011;57434;42.794;23.302;2023-06-14T00:24:17;9.50;;;5.00;;
70071;SDS011;57434;42.794;23.302;2023-06-14T00:25:19;11.25;;;5.03;;
70071;SDS011;57434;42.794;23.302;2023-06-14T00:26:29;10.07;;;4.60;;
70071;SDS011;57434;42.794;23.302;2023-06-14T00:27:31;10.10;;;4.43;;
70071;SDS011;57434;42.794;23.302;2023-06-14T00:28:33;10.35;;;4.10;;
70071;SDS011;57434;42.794;23.302;2023-06-14T00:29:35;9.07;;;4.10;;
70071;SDS011;57434;42.794;23.302;2023-06-14T00:30:37;9.30;;;4.43;;
70071;SDS011;57434;42.794;23.302;2023-06-14T00:31:38;8.82;;;3.90;;
70071;SDS011;57434;42.794;23.302;2023-06-14T00:32:40;8.43;;;4.18;;
70071;SDS011;57434;42.794;23.302;2023-06-14T00:33:42;11.00;;;3.67;;
70071;SDS011;57434;42.794;23.302;2023-06-14T00:34:44;9.57;;;4.25;;
70071;SDS011;57434;42.794;23.302;2023-06-14T00:35:46;8.18;;;4.05;;
70071;SDS011;57434;42.794;23.302;2023-06-14T00:36:48;11.18;;;3.90;;
70071;SDS011;57434;42.794;23.302;2023-06-14T00:37:50;10.15;;;4.15;;
70071;SDS011;57434;42.794;23.302;2023-06-14T00:38:51;8.73;;;4.18;;
70071;SDS011;57434;42.794;23.302;2023-06-14T00:39:53;8.60;;;3.60;;
70071;SDS011;57434;42.794;23.302;2023-06-14T00:40:55;10.10;;;4.23;;
70071;SDS011;57434;42.794;23.302;2023-06-14T00:41:57;8.63;;;4.43;;
70071;SDS011;57434;42.794;23.302;2023-06-14T00:42:59;8.70;;;4.40;;
70071;SDS011;57434;42.794;23.302;2023-06-14T00:44:01;10.52;;;4.28;;
70071;SDS011;57434;42.794;23.302;2023-06-14T00:45:03;9.43;;;3.97;;
70071;SDS011;57434;42.794;23.302;2023-06-14T00:46:06;8.88;;;4.03;;
70071;SDS011;57434;42.794;23.302;2023-06-14T00:47:07;6.50;;;3.20;;
70071;SDS011;57434;42.794;23.302;2023-06-14T00:48:09;10.35;;;3.47;;
70071;SDS011;57434;42.794;23.302;2023-06-14T00:49:15;10.63;;;4.22;;
70071;SDS011;57434;42.794;23.302;2023-06-14T00:50:20;9.98;;;4.18;;
70071;SDS011;57434;42.794;23.302;2023-06-14T00:51:23;8.57;;;3.87;;
70071;SDS011;57434;42.794;23.302;2023-06-14T00:52:25;9.80;;;4.07;;
70071;SDS011;57434;42.794;23.302;2023-06-14T00:53:27;9.48;;;3.88;;
70071;SDS011;57434;42.794;23.302;2023-06-14T00:54:30;6.88;;;3.95;;
70071;SDS011;57434;42.794;23.302;2023-06-14T00:55:32;11.30;;;3.53;;
70071;SDS011;57434;42.794;23.302;2023-06-14T00:56:35;9.68;;;3.20;;
70071;SDS011;57434;42.794;23.302;2023-06-14T00:57:37;7.93;;;3.90;;
70071;SDS011;57434;42.794;23.302;2023-06-14T00:58:40;9.05;;;3.70;;
70071;SDS011;57434;42.794;23.302;2023-06-14T00:59:44;8.98;;;3.78;;
70071;SDS011;57434;42.794;23.302;2023-06-14T01:00:48;10.00;;;4.75;;
70071;SDS011;57434;42.794;23.302;2023-06-14T01:01:50;8.37;;;4.20;;
70071;SDS011;57434;42.794;23.302;2023-06-14T01:02:51;9.00;;;4.13;;
70071;SDS011;57434;42.794;23.302;2023-06-14T01:03:54;12.52;;;4.78;;
70071;SDS011;57434;42.794;23.302;2023-06-14T01:04:56;10.20;;;4.30;;
70071;SDS011;57434;42.794;23.302;2023-06-14T01:06:43;9.25;;;4.38;;
70071;SDS011;57434;42.794;23.302;2023-06-14T01:09:07;10.32;;;4.45;;
70071;SDS011;57434;42.794;23.302;2023-06-14T01:13:51;8.73;;;4.30;;
70071;SDS011;57434;42.794;23.302;2023-06-14T01:14:54;8.30;;;4.30;;
70071;SDS011;57434;42.794;23.302;2023-06-14T01:15:58;13.20;;;4.68;;
70071;SDS011;57434;42.794;23.302;2023-06-14T01:17:00;10.85;;;4.20;;
70071;SDS011;57434;42.794;23.302;2023-06-14T01:18:03;12.20;;;5.13;;
70071;SDS011;57434;42.794;23.302;2023-06-14T01:19:06;9.15;;;4.25;;
70071;SDS011;57434;42.794;23.302;2023-06-14T01:20:13;12.90;;;4.82;;
70071;SDS011;57434;42.794;23.302;2023-06-14T01:21:22;13.90;;;4.40;;
70071;SDS011;57434;42.794;23.302;2023-06-14T01:22:26;7.85;;;4.22;;
70071;SDS011;57434;42.794;23.302;2023-06-14T01:23:28;9.05;;;4.25;;
70071;SDS011;57434;42.794;23.302;2023-06-14T01:24:30;9.30;;;4.35;;
70071;SDS011;57434;42.794;23.302;2023-06-14T01:25:32;9.87;;;4.57;;
70071;SDS011;57434;42.794;23.302;2023-06-14T01:26:33;10.63;;;5.13;;
70071;SDS011;57434;42.794;23.302;2023-06-14T01:27:37;9.05;;;4.10;;
70071;SDS011;57434;42.794;23.302;2023-06-14T01:28:39;11.05;;;4.40;;
70071;SDS011;57434;42.794;23.302;2023-06-14T01:29:41;10.02;;;4.45;;
70071;SDS011;57434;42.794;23.302;2023-06-14T01:30:47;9.98;;;4.00;;
70071;SDS011;57434;42.794;23.302;2023-06-14T01:31:54;8.00;;;3.97;;
70071;SDS011;57434;42.794;23.302;2023-06-14T01:32:56;9.23;;;4.50;;
70071;SDS011;57434;42.794;23.302;2023-06-14T01:33:59;10.15;;;4.32;;
70071;SDS011;57434;42.794;23.302;2023-06-14T01:35:01;8.60;;;4.30;;
70071;SDS011;57434;42.794;23.302;2023-06-14T01:36:03;8.90;;;4.67;;
70071;SDS011;57434;42.794;23.302;2023-06-14T01:37:07;9.18;;;3.83;;
70071;SDS011;57434;42.794;23.302;2023-06-14T01:38:10;10.73;;;4.45;;
70071;SDS011;57434;42.794;23.302;2023-06-14T01:39:17;9.68;;;4.32;;
70071;SDS011;57434;42.794;23.302;2023-06-14T01:40:20;10.48;;;4.60;;
70071;SDS011;57434;42.794;23.302;2023-06-14T01:41:23;7.97;;;3.78;;
70071;SDS011;57434;42.794;23.302;2023-06-14T01:42:26;8.73;;;4.15;;
70071;SDS011;57434;42.794;23.302;2023-06-14T01:43:29;11.15;;;4.45;;
70071;SDS011;57434;42.794;23.302;2023-06-14T01:44:32;8.63;;;4.05;;
70071;SDS011;57434;42.794;23.302;2023-06-14T01:45:34;9.75;;;3.75;;
70071;SDS011;57434;42.794;23.302;2023-06-14T01:46:38;10.27;;;3.83;;
70071;SDS011;57434;42.794;23.302;2023-06-14T01:47:40;11.75;;;4.43;;
70071;SDS011;57434;42.794;23.302;2023-06-14T01:48:42;9.90;;;3.65;;
70071;SDS011;57434;42.794;23.302;2023-06-14T01:49:46;8.05;;;4.55;;
70071;SDS011;57434;42.794;23.302;2023-06-14T01:50:48;7.63;;;4.10;;
70071;SDS011;57434;42.794;23.302;2023-06-14T01:51:51;11.20;;;3.70;;
70071;SDS011;57434;42.794;23.302;2023-06-14T01:52:52;9.50;;;4.13;;
70071;SDS011;57434;42.794;23.302;2023-06-14T01:53:54;9.40;;;4.00;;
70071;SDS011;57434;42.794;23.302;2023-06-14T01:54:56;8.18;;;3.72;;
70071;SDS011;57434;42.794;23.302;2023-06-14T01:55:58;8.10;;;3.90;;
70071;SDS011;57434;42.794;23.302;2023-06-14T01:57:00;8.83;;;3.97;;
70071;SDS011;57434;42.794;23.302;2023-06-14T01:58:02;7.28;;;4.07;;
70071;SDS011;57434;42.794;23.302;2023-06-14T01:59:04;8.18;;;4.03;;
70071;SDS011;57434;42.794;23.302;2023-06-14T02:00:06;7.20;;;3.75;;
70071;SDS011;57434;42.794;23.302;2023-06-14T02:01:09;7.85;;;3.75;;
70071;SDS011;57434;42.794;23.302;2023-06-14T02:02:10;7.50;;;3.60;;
70071;SDS011;57434;42.794;23.302;2023-06-14T02:03:12;7.63;;;3.88;;
70071;SDS011;57434;42.794;23.302;2023-06-14T02:04:14;7.30;;;3.80;;
70071;SDS011;57434;42.794;23.302;2023-06-14T02:05:16;10.45;;;3.88;;
70071;SDS011;57434;42.794;23.302;2023-06-14T02:06:18;9.48;;;3.45;;
70071;SDS011;57434;42.794;23.302;2023-06-14T02:07:20;9.37;;;3.93;;
70071;SDS011;57434;42.794;23.302;2023-06-14T02:08:22;9.82;;;3.70;;
70071;SDS011;57434;42.794;23.302;2023-06-14T02:09:23;9.20;;;3.97;;
70071;SDS011;57434;42.794;23.302;2023-06-14T02:10:26;8.48;;;3.97;;
70071;SDS011;57434;42.794;23.302;2023-06-14T02:11:27;8.05;;;3.78;;
70071;SDS011;57434;42.794;23.302;2023-06-14T02:12:29;9.07;;;4.35;;
70071;SDS011;57434;42.794;23.302;2023-06-14T02:13:31;8.43;;;3.45;;
70071;SDS011;57434;42.794;23.302;2023-06-14T02:14:33;8.23;;;4.00;;
70071;SDS011;57434;42.794;23.302;2023-06-14T02:15:35;7.95;;;3.53;;
70071;SDS011;57434;42.794;23.302;2023-06-14T02:16:37;9.32;;;3.90;;
70071;SDS011;57434;42.794;23.302;2023-06-14T02:17:39;10.23;;;3.80;;
70071;SDS011;57434;42.794;23.302;2023-06-14T02:18:41;9.30;;;3.80;;
70071;SDS011;57434;42.794;23.302;2023-06-14T02:19:42;11.27;;;4.13;;
70071;SDS011;57434;42.794;23.302;2023-06-14T02:20:44;10.07;;;4.10;;
70071;SDS011;57434;42.794;23.302;2023-06-14T02:21:46;9.75;;;3.80;;
70071;SDS011;57434;42.794;23.302;2023-06-14T02:22:49;7.35;;;3.65;;
70071;SDS011;57434;42.794;23.302;2023-06-14T02:23:50;8.05;;;3.90;;
70071;SDS011;57434;42.794;23.302;2023-06-14T02:24:52;8.18;;;3.28;;
70071;SDS011;57434;42.794;23.302;2023-06-14T02:26:02;8.27;;;3.60;;
70071;SDS011;57434;42.794;23.302;2023-06-14T02:27:04;8.70;;;4.07;;
70071;SDS011;57434;42.794;23.302;2023-06-14T02:28:06;8.43;;;3.87;;
70071;SDS011;57434;42.794;23.302;2023-06-14T02:29:08;12.05;;;4.15;;
70071;SDS011;57434;42.794;23.302;2023-06-14T02:30:10;9.48;;;4.18;;
70071;SDS011;57434;42.794;23.302;2023-06-14T02:31:13;10.38;;;4.00;;
70071;SDS011;57434;42.794;23.302;2023-06-14T02:32:15;8.20;;;4.00;;
70071;SDS011;57434;42.794;23.302;2023-06-14T02:33:17;9.02;;;4.00;;
70071;SDS011;57434;42.794;23.302;2023-06-14T02:34:18;7.20;;;4.10;;
70071;SDS011;57434;42.794;23.302;2023-06-14T02:35:20;9.07;;;4.00;;
70071;SDS011;57434;42.794;23.302;2023-06-14T02:36:22;11.43;;;4.47;;
70071;SDS011;57434;42.794;23.302;2023-06-14T02:37:24;9.80;;;4.10;;
70071;SDS011;57434;42.794;23.302;2023-06-14T02:38:26;9.67;;;4.43;;
70071;SDS011;57434;42.794;23.302;2023-06-14T02:39:28;11.10;;;3.58;;
70071;SDS011;57434;42.794;23.302;2023-06-14T02:40:30;9.88;;;4.38;;
70071;SDS011;57434;42.794;23.302;2023-06-14T02:41:32;10.30;;;3.70;;
70071;SDS011;57434;42.794;23.302;2023-06-14T02:42:34;9.98;;;3.33;;
70071;SDS011;57434;42.794;23.302;2023-06-14T02:43:36;9.98;;;4.13;;
70071;SDS011;57434;42.794;23.302;2023-06-14T02:44:38;10.77;;;3.90;;
70071;SDS011;57434;42.794;23.302;2023-06-14T02:45:39;10.52;;;3.58;;
70071;SDS011;57434;42.794;23.302;2023-06-14T02:46:41;9.10;;;3.63;;
70071;SDS011;57434;42.794;23.302;2023-06-14T02:47:43;9.63;;;3.22;;
70071;SDS011;57434;42.794;23.302;2023-06-14T02:48:45;10.37;;;4.13;;
70071;SDS011;57434;42.794;23.302;2023-06-14T02:49:47;12.45;;;3.83;;
70071;SDS011;57434;42.794;23.302;2023-06-14T02:50:49;14.10;;;4.40;;
70071;SDS011;57434;42.794;23.302;2023-06-14T02:51:50;11.88;;;3.67;;
70071;SDS011;57434;42.794;23.302;2023-06-14T02:52:52;11.27;;;4.35;;
70071;SDS011;57434;42.794;23.302;2023-06-14T02:53:54;17.92;;;3.88;;
70071;SDS011;57434;42.794;23.302;2023-06-14T02:54:56;11.05;;;3.78;;
70071;SDS011;57434;42.794;23.302;2023-06-14T02:55:58;13.15;;;3.72;;
70071;SDS011;57434;42.794;23.302;2023-06-14T02:56:59;9.88;;;3.50;;
70071;SDS011;57434;42.794;23.302;2023-06-14T02:58:01;9.60;;;3.95;;
70071;SDS011;57434;42.794;23.302;2023-06-14T02:59:03;12.80;;;4.03;;
70071;SDS011;57434;42.794;23.302;2023-06-14T03:00:05;12.40;;;3.67;;
70071;SDS011;57434;42.794;23.302;2023-06-14T03:01:07;14.18;;;3.67;;
70071;SDS011;57434;42.794;23.302;2023-06-14T03:02:09;10.73;;;3.97;;
70071;SDS011;57434;42.794;23.302;2023-06-14T03:03:11;10.18;;;3.95;;
70071;SDS011;57434;42.794;23.302;2023-06-14T03:04:13;9.65;;;3.42;;
70071;SDS011;57434;42.794;23.302;2023-06-14T03:05:14;8.98;;;3.50;;
70071;SDS011;57434;42.794;23.302;2023-06-14T03:06:16;10.77;;;4.10;;
70071;SDS011;57434;42.794;23.302;2023-06-14T03:07:18;10.02;;;4.05;;
70071;SDS011;57434;42.794;23.302;2023-06-14T03:08:20;7.63;;;3.90;;
70071;SDS011;57434;42.794;23.302;2023-06-14T03:09:22;9.37;;;4.00;;
70071;SDS011;57434;42.794;23.302;2023-06-14T03:10:24;10.88;;;4.25;;
70071;SDS011;57434;42.794;23.302;2023-06-14T03:11:26;10.55;;;3.72;;
70071;SDS011;57434;42.794;23.302;2023-06-14T03:12:29;10.95;;;3.75;;
70071;SDS011;57434;42.794;23.302;2023-06-14T03:13:30;8.80;;;3.28;;
70071;SDS011;57434;42.794;23.302;2023-06-14T03:14:33;9.80;;;3.67;;
70071;SDS011;57434;42.794;23.302;2023-06-14T03:15:35;8.93;;;3.83;;
70071;SDS011;57434;42.794;23.302;2023-06-14T03:16:36;8.82;;;3.88;;
70071;SDS011;57434;42.794;23.302;2023-06-14T03:17:38;10.23;;;3.80;;
70071;SDS011;57434;42.794;23.302;2023-06-14T03:18:40;8.60;;;3.85;;
70071;SDS011;57434;42.794;23.302;2023-06-14T03:19:42;7.00;;;3.37;;
70071;SDS011;57434;42.794;23.302;2023-06-14T03:20:44;7.35;;;3.65;;
70071;SDS011;57434;42.794;23.302;2023-06-14T03:21:46;11.35;;;3.95;;
70071;SDS011;57434;42.794;23.302;2023-06-14T03:22:48;8.63;;;3.50;;
70071;SDS011;57434;42.794;23.302;2023-06-14T03:23:50;12.65;;;3.83;;
70071;SDS011;57434;42.794;23.302;2023-06-14T03:24:52;7.50;;;3.28;;
70071;SDS011;57434;42.794;23.302;2023-06-14T03:25:54;9.10;;;3.72;;
70071;SDS011;57434;42.794;23.302;2023-06-14T03:26:55;10.52;;;3.78;;
70071;SDS011;57434;42.794;23.302;2023-06-14T03:27:57;10.10;;;4.43;;
70071;SDS011;57434;42.794;23.302;2023-06-14T03:28:59;10.02;;;3.83;;
70071;SDS011;57434;42.794;23.302;2023-06-14T03:30:01;8.60;;;4.17;;
70071;SDS011;57434;42.794;23.302;2023-06-14T03:31:02;9.05;;;3.58;;
70071;SDS011;57434;42.794;23.302;2023-06-14T03:32:04;7.63;;;3.50;;
70071;SDS011;57434;42.794;23.302;2023-06-14T03:33:06;7.68;;;4.07;;
70071;SDS011;57434;42.794;23.302;2023-06-14T03:34:08;9.85;;;4.00;;
70071;SDS011;57434;42.794;23.302;2023-06-14T03:35:10;8.77;;;4.13;;
70071;SDS011;57434;42.794;23.302;2023-06-14T03:36:12;11.95;;;3.70;;
70071;SDS011;57434;42.794;23.302;2023-06-14T03:37:14;11.20;;;4.35;;
70071;SDS011;57434;42.794;23.302;2023-06-14T03:38:15;9.93;;;4.28;;
70071;SDS011;57434;42.794;23.302;2023-06-14T03:39:17;11.05;;;4.38;;
70071;SDS011;57434;42.794;23.302;2023-06-14T03:40:19;14.30;;;3.90;;
70071;SDS011;57434;42.794;23.302;2023-06-14T03:41:22;8.98;;;3.90;;
70071;SDS011;57434;42.794;23.302;2023-06-14T03:42:24;13.82;;;4.68;;
70071;SDS011;57434;42.794;23.302;2023-06-14T03:43:25;9.20;;;4.53;;
70071;SDS011;57434;42.794;23.302;2023-06-14T03:44:27;10.38;;;4.25;;
70071;SDS011;57434;42.794;23.302;2023-06-14T03:45:29;9.70;;;4.15;;
70071;SDS011;57434;42.794;23.302;2023-06-14T03:46:31;11.20;;;4.05;;
70071;SDS011;57434;42.794;23.302;2023-06-14T03:47:33;8.15;;;3.92;;
70071;SDS011;57434;42.794;23.302;2023-06-14T03:48:35;8.23;;;4.18;;
70071;SDS011;57434;42.794;23.302;2023-06-14T03:49:37;12.85;;;4.60;;
70071;SDS011;57434;42.794;23.302;2023-06-14T03:50:39;10.60;;;4.50;;
70071;SDS011;57434;42.794;23.302;2023-06-14T03:51:41;11.32;;;4.30;;
70071;SDS011;57434;42.794;23.302;2023-06-14T03:52:43;8.20;;;4.00;;
70071;SDS011;57434;42.794;23.302;2023-06-14T03:53:45;12.93;;;4.32;;
70071;SDS011;57434;42.794;23.302;2023-06-14T03:55:07;10.00;;;4.13;;
70071;SDS011;57434;42.794;23.302;2023-06-14T03:56:11;12.45;;;4.07;;
70071;SDS011;57434;42.794;23.302;2023-06-14T03:57:14;10.93;;;4.60;;
70071;SDS011;57434;42.794;23.302;2023-06-14T03:58:16;9.73;;;3.78;;
70071;SDS011;57434;42.794;23.302;2023-06-14T03:59:18;10.13;;;4.30;;
70071;SDS011;57434;42.794;23.302;2023-06-14T04:00:20;10.05;;;4.25;;
70071;SDS011;57434;42.794;23.302;2023-06-14T04:01:21;10.23;;;4.60;;
70071;SDS011;57434;42.794;23.302;2023-06-14T04:02:23;8.95;;;4.05;;
70071;SDS011;57434;42.794;23.302;2023-06-14T04:03:25;9.43;;;4.00;;
70071;SDS011;57434;42.794;23.302;2023-06-14T04:04:27;8.63;;;4.15;;
70071;SDS011;57434;42.794;23.302;2023-06-14T04:05:29;10.77;;;4.20;;
70071;SDS011;57434;42.794;23.302;2023-06-14T04:06:31;9.75;;;4.57;;
70071;SDS011;57434;42.794;23.302;2023-06-14T04:07:34;9.20;;;4.00;;
70071;SDS011;57434;42.794;23.302;2023-06-14T04:08:36;10.20;;;4.38;;
70071;SDS011;57434;42.794;23.302;2023-06-14T04:09:38;11.25;;;3.80;;
70071;SDS011;57434;42.794;23.302;2023-06-14T04:10:41;10.00;;;4.55;;
70071;SDS011;57434;42.794;23.302;2023-06-14T04:11:43;10.97;;;4.37;;
70071;SDS011;57434;42.794;23.302;2023-06-14T04:12:44;7.82;;;4.10;;
70071;SDS011;57434;42.794;23.302;2023-06-14T04:13:46;8.40;;;3.90;;
70071;SDS011;57434;42.794;23.302;2023-06-14T04:14:48;9.77;;;4.05;;
70071;SDS011;57434;42.794;23.302;2023-06-14T04:15:50;8.30;;;3.85;;
70071;SDS011;57434;42.794;23.302;2023-06-14T04:16:52;9.38;;;4.05;;
70071;SDS011;57434;42.794;23.302;2023-06-14T04:17:54;9.95;;;4.30;;
70071;SDS011;57434;42.794;23.302;2023-06-14T04:18:56;9.10;;;4.90;;
70071;SDS011;57434;42.794;23.302;2023-06-14T04:19:58;10.10;;;4.78;;
70071;SDS011;57434;42.794;23.302;2023-06-14T04:21:00;10.73;;;4.68;;
70071;SDS011;57434;42.794;23.302;2023-06-14T04:22:02;11.40;;;4.57;;
70071;SDS011;57434;42.794;23.302;2023-06-14T04:23:13;9.35;;;4.55;;
70071;SDS011;57434;42.794;23.302;2023-06-14T04:24:16;8.82;;;4.72;;
70071;SDS011;57434;42.794;23.302;2023-06-14T04:25:18;10.75;;;4.57;;
70071;SDS011;57434;42.794;23.302;2023-06-14T04:26:26;8.25;;;4.13;;
70071;SDS011;57434;42.794;23.302;2023-06-14T04:27:28;10.35;;;4.55;;
70071;SDS011;57434;42.794;23.302;2023-06-14T04:28:30;13.13;;;4.88;;
70071;SDS011;57434;42.794;23.302;2023-06-14T04:29:32;9.82;;;4.85;;
70071;SDS011;57434;42.794;23.302;2023-06-14T04:30:33;10.00;;;4.63;;
70071;SDS011;57434;42.794;23.302;2023-06-14T04:31:35;10.63;;;4.55;;
70071;SDS011;57434;42.794;23.302;2023-06-14T04:32:37;9.67;;;4.83;;
70071;SDS011;57434;42.794;23.302;2023-06-14T04:33:39;10.65;;;5.13;;
70071;SDS011;57434;42.794;23.302;2023-06-14T04:34:41;15.27;;;7.82;;
70071;SDS011;57434;42.794;23.302;2023-06-14T04:35:43;15.70;;;8.95;;
70071;SDS011;57434;42.794;23.302;2023-06-14T04:36:45;11.32;;;5.32;;
70071;SDS011;57434;42.794;23.302;2023-06-14T04:37:47;13.90;;;6.07;;
70071;SDS011;57434;42.794;23.302;2023-06-14T04:38:48;13.52;;;6.53;;
70071;SDS011;57434;42.794;23.302;2023-06-14T04:39:50;11.75;;;4.80;;
70071;SDS011;57434;42.794;23.302;2023-06-14T04:40:52;9.43;;;4.55;;
70071;SDS011;57434;42.794;23.302;2023-06-14T04:41:54;7.63;;;4.20;;
70071;SDS011;57434;42.794;23.302;2023-06-14T04:42:56;9.23;;;4.97;;
70071;SDS011;57434;42.794;23.302;2023-06-14T04:43:58;12.25;;;4.50;;
70071;SDS011;57434;42.794;23.302;2023-06-14T04:45:01;9.48;;;4.50;;
70071;SDS011;57434;42.794;23.302;2023-06-14T04:46:04;10.27;;;4.32;;
70071;SDS011;57434;42.794;23.302;2023-06-14T04:47:07;8.82;;;4.78;;
70071;SDS011;57434;42.794;23.302;2023-06-14T04:48:08;11.63;;;4.95;;
70071;SDS011;57434;42.794;23.302;2023-06-14T04:49:10;9.85;;;4.32;;
70071;SDS011;57434;42.794;23.302;2023-06-14T04:50:13;12.25;;;4.50;;
70071;SDS011;57434;42.794;23.302;2023-06-14T04:51:15;8.35;;;4.57;;
70071;SDS011;57434;42.794;23.302;2023-06-14T04:52:16;10.57;;;4.53;;
70071;SDS011;57434;42.794;23.302;2023-06-14T04:53:19;9.57;;;4.40;;
70071;SDS011;57434;42.794;23.302;2023-06-14T04:54:22;9.50;;;3.97;;
70071;SDS011;57434;42.794;23.302;2023-06-14T04:55:25;8.23;;;3.92;;
70071;SDS011;57434;42.794;23.302;2023-06-14T04:56:27;8.02;;;4.25;;
70071;SDS011;57434;42.794;23.302;2023-06-14T04:57:28;9.57;;;4.38;;
70071;SDS011;57434;42.794;23.302;2023-06-14T04:58:30;10.98;;;4.20;;
70071;SDS011;57434;42.794;23.302;2023-06-14T04:59:32;9.55;;;4.32;;
70071;SDS011;57434;42.794;23.302;2023-06-14T05:00:34;9.40;;;4.45;;
70071;SDS011;57434;42.794;23.302;2023-06-14T05:01:35;9.70;;;4.03;;
70071;SDS011;57434;42.794;23.302;2023-06-14T05:02:37;8.18;;;3.83;;
70071;SDS011;57434;42.794;23.302;2023-06-14T05:03:39;9.10;;;4.00;;
70071;SDS011;57434;42.794;23.302;2023-06-14T05:04:41;8.95;;;4.05;;
70071;SDS011;57434;42.794;23.302;2023-06-14T05:05:43;9.93;;;4.32;;
70071;SDS011;57434;42.794;23.302;2023-06-14T05:06:45;8.35;;;4.00;;
70071;SDS011;57434;42.794;23.302;2023-06-14T05:07:47;9.40;;;4.38;;
70071;SDS011;57434;42.794;23.302;2023-06-14T05:08:49;9.65;;;4.32;;
70071;SDS011;57434;42.794;23.302;2023-06-14T05:09:51;8.70;;;4.38;;
70071;SDS011;57434;42.794;23.302;2023-06-14T05:10:53;8.00;;;4.00;;
70071;SDS011;57434;42.794;23.302;2023-06-14T05:11:54;9.27;;;4.07;;
70071;SDS011;57434;42.794;23.302;2023-06-14T05:12:56;9.23;;;4.47;;
70071;SDS011;57434;42.794;23.302;2023-06-14T05:13:58;8.50;;;4.43;;
70071;SDS011;57434;42.794;23.302;2023-06-14T05:15:00;9.25;;;4.93;;
70071;SDS011;57434;42.794;23.302;2023-06-14T05:16:02;10.30;;;4.22;;
70071;SDS011;57434;42.794;23.302;2023-06-14T05:17:04;8.85;;;4.30;;
70071;SDS011;57434;42.794;23.302;2023-06-14T05:18:06;11.18;;;4.50;;
70071;SDS011;57434;42.794;23.302;2023-06-14T05:19:08;9.20;;;4.28;;
70071;SDS011;57434;42.794;23.302;2023-06-14T05:20:10;9.23;;;4.60;;
70071;SDS011;57434;42.794;23.302;2023-06-14T05:21:11;11.27;;;4.32;;
70071;SDS011;57434;42.794;23.302;2023-06-14T05:22:13;9.07;;;4.53;;
70071;SDS011;57434;42.794;23.302;2023-06-14T05:23:15;7.95;;;4.35;;
70071;SDS011;57434;42.794;23.302;2023-06-14T05:24:17;10.20;;;4.53;;
70071;SDS011;57434;42.794;23.302;2023-06-14T05:25:19;9.07;;;4.22;;
70071;SDS011;57434;42.794;23.302;2023-06-14T05:26:21;9.27;;;4.80;;
70071;SDS011;57434;42.794;23.302;2023-06-14T05:27:23;11.50;;;5.30;;
70071;SDS011;57434;42.794;23.302;2023-06-14T05:28:25;8.65;;;4.47;;
70071;SDS011;57434;42.794;23.302;2023-06-14T05:29:27;8.00;;;4.15;;
70071;SDS011;57434;42.794;23.302;2023-06-14T05:30:31;13.95;;;4.80;;
70071;SDS011;57434;42.794;23.302;2023-06-14T05:31:33;11.55;;;4.78;;
70071;SDS011;57434;42.794;23.302;2023-06-14T05:32:35;9.63;;;4.90;;
70071;SDS011;57434;42.794;23.302;2023-06-14T05:33:36;9.35;;;4.30;;
70071;SDS011;57434;42.794;23.302;2023-06-14T05:34:38;12.07;;;4.40;;
70071;SDS011;57434;42.794;23.302;2023-06-14T05:35:40;10.60;;;4.78;;
70071;SDS011;57434;42.794;23.302;2023-06-14T05:36:42;9.50;;;4.63;;
70071;SDS011;57434;42.794;23.302;2023-06-14T05:37:44;8.32;;;4.20;;
70071;SDS011;57434;42.794;23.302;2023-06-14T05:38:46;10.13;;;4.47;;
70071;SDS011;57434;42.794;23.302;2023-06-14T05:39:47;11.73;;;4.30;;
70071;SDS011;57434;42.794;23.302;2023-06-14T05:40:49;9.35;;;5.05;;
70071;SDS011;57434;42.794;23.302;2023-06-14T05:41:51;8.75;;;4.38;;
70071;SDS011;57434;42.794;23.302;2023-06-14T05:42:53;9.77;;;5.45;;
70071;SDS011;57434;42.794;23.302;2023-06-14T05:43:55;8.93;;;4.53;;
70071;SDS011;57434;42.794;23.302;2023-06-14T05:44:57;11.23;;;4.93;;
70071;SDS011;57434;42.794;23.302;2023-06-14T05:45:59;9.65;;;4.85;;
70071;SDS011;57434;42.794;23.302;2023-06-14T05:47:01;13.00;;;4.97;;
70071;SDS011;57434;42.794;23.302;2023-06-14T05:48:03;9.65;;;4.82;;
70071;SDS011;57434;42.794;23.302;2023-06-14T05:49:05;10.82;;;4.95;;
70071;SDS011;57434;42.794;23.302;2023-06-14T05:50:07;10.88;;;5.00;;
70071;SDS011;57434;42.794;23.302;2023-06-14T05:51:09;10.73;;;4.88;;
70071;SDS011;57434;42.794;23.302;2023-06-14T05:52:11;11.45;;;5.60;;
70071;SDS011;57434;42.794;23.302;2023-06-14T05:53:13;10.60;;;4.78;;
70071;SDS011;57434;42.794;23.302;2023-06-14T05:54:15;12.85;;;5.47;;
70071;SDS011;57434;42.794;23.302;2023-06-14T05:55:16;12.17;;;5.70;;
70071;SDS011;57434;42.794;23.302;2023-06-14T05:56:19;10.30;;;5.32;;
70071;SDS011;57434;42.794;23.302;2023-06-14T05:57:21;13.98;;;6.03;;
70071;SDS011;57434;42.794;23.302;2023-06-14T05:58:23;10.90;;;5.30;;
70071;SDS011;57434;42.794;23.302;2023-06-14T05:59:25;12.13;;;5.47;;
70071;SDS011;57434;42.794;23.302;2023-06-14T06:00:26;12.43;;;5.93;;
70071;SDS011;57434;42.794;23.302;2023-06-14T06:01:28;11.77;;;5.80;;
70071;SDS011;57434;42.794;23.302;2023-06-14T06:02:30;11.25;;;6.03;;
70071;SDS011;57434;42.794;23.302;2023-06-14T06:03:32;13.63;;;5.82;;
70071;SDS011;57434;42.794;23.302;2023-06-14T06:04:34;12.73;;;6.15;;
70071;SDS011;57434;42.794;23.302;2023-06-14T06:05:36;12.83;;;5.83;;
70071;SDS011;57434;42.794;23.302;2023-06-14T06:06:38;10.38;;;5.35;;
70071;SDS011;57434;42.794;23.302;2023-06-14T06:07:39;12.77;;;6.10;;
70071;SDS011;57434;42.794;23.302;2023-06-14T06:08:41;14.02;;;5.85;;
70071;SDS011;57434;42.794;23.302;2023-06-14T06:09:43;10.82;;;6.00;;
70071;SDS011;57434;42.794;23.302;2023-06-14T06:10:45;11.13;;;5.60;;
70071;SDS011;57434;42.794;23.302;2023-06-14T06:11:46;13.32;;;5.90;;
70071;SDS011;57434;42.794;23.302;2023-06-14T06:12:54;13.18;;;6.30;;